createdAt,value
2019-02-28T00:01:30.436Z,48.90
2019-02-28T00:03:59.090Z,48.90
2019-02-28T00:06:26.907Z,48.85
2019-02-28T00:08:54.752Z,48.38
2019-02-28T00:11:22.596Z,48.55
2019-02-28T00:13:52.305Z,48.54
2019-02-28T00:16:20.159Z,48.18
2019-02-28T00:18:49.953Z,48.50
2019-02-28T00:21:17.621Z,48.14
2019-02-28T00:23:45.407Z,47.98
2019-02-28T00:26:13.150Z,47.92
2019-02-28T00:28:41.054Z,47.64
2019-02-28T00:31:08.770Z,47.83
2019-02-28T00:33:36.550Z,47.91
2019-02-28T00:36:04.311Z,47.90
2019-02-28T00:38:32.257Z,47.96
2019-02-28T00:40:59.989Z,48.22
2019-02-28T00:43:27.931Z,48.41
2019-02-28T00:45:55.809Z,48.69
2019-02-28T00:48:23.563Z,48.57
2019-02-28T00:50:51.513Z,48.05
2019-02-28T00:53:19.273Z,48.47
2019-02-28T00:55:47.195Z,48.97
2019-02-28T00:58:15.127Z,49.49
2019-02-28T01:00:42.871Z,49.54
2019-02-28T01:03:10.637Z,49.87
2019-02-28T01:05:38.424Z,49.80
2019-02-28T01:08:06.343Z,49.70
2019-02-28T01:10:38.795Z,49.39
2019-02-28T01:13:03.959Z,49.64
2019-02-28T01:15:31.956Z,49.51
2019-02-28T01:18:00.409Z,49.63
2019-02-28T01:20:29.203Z,50.13
2019-02-28T01:22:58.475Z,50.50
2019-02-28T01:25:26.617Z,50.33
2019-02-28T01:27:54.412Z,50.41
2019-02-28T01:30:22.348Z,51.04
2019-02-28T01:32:50.971Z,51.32
2019-02-28T01:35:18.886Z,51.48
2019-02-28T01:37:46.604Z,51.15
2019-02-28T01:40:14.706Z,51.02
2019-02-28T01:42:42.531Z,50.54
2019-02-28T01:45:11.025Z,50.01
2019-02-28T01:47:38.905Z,49.95
2019-02-28T01:50:06.978Z,49.79
2019-02-28T01:52:34.696Z,49.68
2019-02-28T01:55:02.857Z,49.19
2019-02-28T01:57:30.574Z,49.50
2019-02-28T01:59:58.530Z,49.07
2019-02-28T02:02:26.266Z,48.84
2019-02-28T02:04:54.028Z,48.73
2019-02-28T02:07:21.854Z,49.29
2019-02-28T02:09:49.897Z,49.75
2019-02-28T02:12:17.797Z,49.93
2019-02-28T02:14:45.867Z,50.02
2019-02-28T02:17:13.881Z,50.13
2019-02-28T02:19:41.634Z,49.77
2019-02-28T02:22:10.118Z,49.40
2019-02-28T02:24:38.020Z,48.88
2019-02-28T02:27:06.007Z,48.83
2019-02-28T02:29:36.269Z,48.41
2019-02-28T02:32:03.774Z,48.39
2019-02-28T02:34:31.517Z,48.29
2019-02-28T02:36:59.225Z,48.19
2019-02-28T02:39:27.153Z,48.19
2019-02-28T02:41:55.032Z,48.51
2019-02-28T02:44:22.770Z,48.29
2019-02-28T02:46:55.443Z,48.13
2019-02-28T02:49:20.379Z,47.88
2019-02-28T02:51:50.359Z,47.76
2019-02-28T02:54:19.629Z,47.55
2019-02-28T02:56:47.552Z,47.63
2019-02-28T02:59:15.303Z,47.71
2019-02-28T03:01:43.068Z,47.75
2019-02-28T03:04:10.833Z,48.21
2019-02-28T03:06:38.726Z,47.66
2019-02-28T03:09:10.001Z,47.29
2019-02-28T03:11:37.472Z,47.36
2019-02-28T03:14:05.235Z,47.32
2019-02-28T03:16:34.544Z,47.12
2019-02-28T03:19:02.432Z,47.21
2019-02-28T03:21:30.353Z,46.97
2019-02-28T03:23:58.145Z,46.86
2019-02-28T03:26:25.880Z,47.29
2019-02-28T03:28:53.613Z,47.49
2019-02-28T03:31:21.552Z,47.49
2019-02-28T03:33:49.317Z,47.89
2019-02-28T03:36:17.247Z,48.18
2019-02-28T03:38:49.625Z,47.75
2019-02-28T03:41:17.846Z,47.35
2019-02-28T03:43:44.361Z,47.10
2019-02-28T03:46:12.311Z,47.16
2019-02-28T03:48:40.093Z,47.11
2019-02-28T03:51:07.873Z,47.40
2019-02-28T03:53:35.763Z,47.59
2019-02-28T03:56:03.741Z,48.06
2019-02-28T03:58:31.774Z,47.61
2019-02-28T04:00:59.518Z,47.39
2019-02-28T04:03:33.386Z,47.42
2019-02-28T04:06:03.395Z,47.87
2019-02-28T04:08:30.366Z,48.44
2019-02-28T04:10:56.611Z,47.99
2019-02-28T04:13:24.352Z,47.88
2019-02-28T04:16:07.609Z,47.59
2019-02-28T04:18:22.215Z,47.62
2019-02-28T04:20:49.952Z,47.44
2019-02-28T04:23:17.871Z,46.89
2019-02-28T04:25:45.606Z,46.95
2019-02-28T04:28:17.266Z,47.10
2019-02-28T04:30:44.002Z,47.59
2019-02-28T04:33:12.134Z,47.35
2019-02-28T04:35:39.868Z,47.03
2019-02-28T04:38:07.616Z,47.06
2019-02-28T04:40:35.372Z,47.02
2019-02-28T04:43:03.299Z,46.86
2019-02-28T04:45:31.061Z,47.00
2019-02-28T04:47:59.024Z,46.88
2019-02-28T04:50:31.194Z,47.56
2019-02-28T04:52:56.598Z,47.73
2019-02-28T04:55:24.369Z,47.69
2019-02-28T04:57:52.406Z,48.10
2019-02-28T05:00:20.183Z,47.82
2019-02-28T05:02:47.972Z,47.99
2019-02-28T05:05:15.760Z,47.68
2019-02-28T05:07:43.669Z,47.37
2019-02-28T05:10:11.548Z,47.14
2019-02-28T05:12:39.876Z,47.26
2019-02-28T05:15:09.028Z,47.59
2019-02-28T05:17:36.940Z,47.22
2019-02-28T05:20:07.284Z,46.67
2019-02-28T05:22:35.095Z,46.53
2019-02-28T05:25:03.164Z,46.51
2019-02-28T05:27:34.831Z,46.78
2019-02-28T05:30:00.761Z,47.18
2019-02-28T05:32:28.660Z,46.83
2019-02-28T05:34:56.396Z,46.78
2019-02-28T05:37:24.326Z,47.11
2019-02-28T05:39:52.125Z,46.78
2019-02-28T05:42:20.248Z,46.95
2019-02-28T05:44:49.834Z,47.09
2019-02-28T05:47:17.760Z,47.26
2019-02-28T05:49:45.554Z,47.62
2019-02-28T05:52:13.468Z,47.81
2019-02-28T05:54:41.230Z,47.85
2019-02-28T05:57:09.085Z,47.80
2019-02-28T05:59:37.062Z,48.05
2019-02-28T06:02:04.819Z,47.80
2019-02-28T06:04:34.178Z,48.14
2019-02-28T06:07:02.254Z,48.60
2019-02-28T06:09:30.194Z,48.78
2019-02-28T06:11:57.979Z,48.57
2019-02-28T06:14:27.537Z,48.33
2019-02-28T06:16:55.500Z,48.32
2019-02-28T06:19:23.239Z,48.60
2019-02-28T06:21:52.945Z,49.11
2019-02-28T06:24:20.647Z,49.32
2019-02-28T06:26:48.452Z,49.51
2019-02-28T06:29:16.258Z,49.21
2019-02-28T06:31:45.466Z,49.09
2019-02-28T06:34:13.731Z,48.88
2019-02-28T06:36:41.454Z,49.23
2019-02-28T06:39:09.227Z,49.19
2019-02-28T06:41:39.850Z,49.55
2019-02-28T06:44:06.843Z,49.71
2019-02-28T06:46:34.628Z,49.68
2019-02-28T06:49:06.990Z,49.75
2019-02-28T06:51:32.079Z,49.68
2019-02-28T06:54:00.075Z,49.64
2019-02-28T06:56:27.826Z,49.60
2019-02-28T06:58:55.787Z,49.81
2019-02-28T07:01:23.537Z,49.84
2019-02-28T07:03:53.597Z,49.86
2019-02-28T07:06:20.971Z,50.14
2019-02-28T07:08:48.720Z,50.35
2019-02-28T07:11:19.941Z,50.50
2019-02-28T07:13:46.516Z,50.69
2019-02-28T07:16:14.303Z,50.82
2019-02-28T07:18:42.331Z,50.97
2019-02-28T07:21:10.322Z,51.32
2019-02-28T07:23:38.254Z,51.24
2019-02-28T07:26:06.023Z,51.36
2019-02-28T07:28:37.415Z,51.54
2019-02-28T07:31:03.480Z,51.75
2019-02-28T07:33:31.237Z,51.84
2019-02-28T07:35:59.054Z,51.83
2019-02-28T07:38:29.023Z,51.70
2019-02-28T07:40:56.507Z,51.53
2019-02-28T07:43:24.273Z,51.38
2019-02-28T07:45:53.494Z,51.00
2019-02-28T07:48:26.823Z,51.32
2019-02-28T07:50:50.972Z,51.59
2019-02-28T07:53:18.724Z,51.76
2019-02-28T07:55:46.508Z,51.84
2019-02-28T07:58:15.252Z,52.01
2019-02-28T08:00:43.072Z,52.15
2019-02-28T08:03:11.972Z,52.13
2019-02-28T08:05:39.803Z,52.23
2019-02-28T08:08:07.598Z,52.20
2019-02-28T08:10:35.474Z,52.49
2019-02-28T08:13:04.068Z,53.07
2019-02-28T08:15:31.939Z,53.67
2019-02-28T08:17:59.684Z,53.27
2019-02-28T08:20:30.759Z,53.24
2019-02-28T08:22:57.786Z,53.02
2019-02-28T08:25:25.793Z,53.07
2019-02-28T08:27:59.143Z,53.13
2019-02-28T08:30:23.322Z,53.03
2019-02-28T08:32:51.137Z,52.79
2019-02-28T08:35:19.055Z,52.66
2019-02-28T08:37:46.805Z,52.80
2019-02-28T08:40:16.573Z,53.09
2019-02-28T08:42:44.295Z,53.04
2019-02-28T08:45:12.964Z,52.67
2019-02-28T08:47:40.743Z,52.86
2019-02-28T08:50:12.135Z,53.03
2019-02-28T08:52:41.012Z,52.97
2019-02-28T08:55:11.862Z,52.73
2019-02-28T08:57:39.639Z,52.38
2019-02-28T09:00:11.453Z,52.31
2019-02-28T09:02:39.183Z,52.67
2019-02-28T09:05:07.440Z,52.55
2019-02-28T09:07:35.199Z,52.02
2019-02-28T09:10:06.383Z,52.09
2019-02-28T09:12:34.116Z,52.17
2019-02-28T09:15:02.061Z,51.52
2019-02-28T09:17:29.851Z,51.02
2019-02-28T09:19:57.661Z,50.60
2019-02-28T09:22:27.351Z,50.21
2019-02-28T09:24:55.063Z,49.98
2019-02-28T09:27:22.827Z,49.84
2019-02-28T09:29:54.509Z,48.83
2019-02-28T09:32:20.229Z,48.08
2019-02-28T09:34:47.861Z,47.07
2019-02-28T09:37:15.654Z,46.37
2019-02-28T09:39:43.390Z,45.49
2019-02-28T09:42:14.819Z,46.32
2019-02-28T09:44:40.854Z,46.80
2019-02-28T09:47:11.576Z,47.49
2019-02-28T09:49:38.315Z,48.38
2019-02-28T09:52:07.225Z,47.93
2019-02-28T09:54:35.108Z,47.58
2019-02-28T09:57:02.890Z,48.10
2019-02-28T09:59:30.636Z,48.17
2019-02-28T10:02:01.321Z,47.31
2019-02-28T10:04:30.637Z,46.14
2019-02-28T10:06:57.822Z,45.56
2019-02-28T10:09:25.561Z,44.16
2019-02-28T10:11:53.372Z,43.37
2019-02-28T10:14:21.310Z,43.55
2019-02-28T10:16:49.528Z,44.42
2019-02-28T10:19:18.715Z,44.58
2019-02-28T10:21:51.812Z,44.99
2019-02-28T10:24:16.166Z,45.38
2019-02-28T10:26:43.939Z,44.63
2019-02-28T10:29:11.695Z,44.06
2019-02-28T10:31:39.487Z,43.68
2019-02-28T10:34:07.242Z,41.57
2019-02-28T10:36:35.015Z,37.10
2019-02-28T10:39:05.889Z,33.37
2019-02-28T10:41:34.646Z,31.81
2019-02-28T10:44:02.381Z,29.50
2019-02-28T10:46:30.152Z,28.62
2019-02-28T10:48:57.934Z,30.85
2019-02-28T10:51:25.731Z,32.70
2019-02-28T10:53:53.459Z,31.93
2019-02-28T10:56:21.212Z,30.52
2019-02-28T10:58:50.139Z,29.65
2019-02-28T11:01:18.619Z,29.71
2019-02-28T11:03:46.452Z,29.04
2019-02-28T11:06:14.331Z,29.12
2019-02-28T11:08:44.443Z,29.51
2019-02-28T11:11:12.685Z,31.70
2019-02-28T11:13:40.529Z,33.00
2019-02-28T11:16:08.279Z,34.46
2019-02-28T11:18:36.546Z,34.22
2019-02-28T11:21:04.289Z,29.23
2019-02-28T11:23:33.264Z,27.54
2019-02-28T11:26:03.412Z,25.83
2019-02-28T11:28:31.821Z,24.49
2019-02-28T11:31:01.169Z,23.29
2019-02-28T11:33:30.620Z,20.96
2019-02-28T11:35:59.650Z,18.40
2019-02-28T11:38:27.575Z,17.32
2019-02-28T11:40:57.528Z,17.09
2019-02-28T11:43:26.752Z,19.35
2019-02-28T11:45:56.428Z,18.79
2019-02-28T11:48:25.115Z,18.06
2019-02-28T11:50:52.856Z,16.82
2019-02-28T11:53:20.612Z,16.91
2019-02-28T11:55:48.358Z,17.49
2019-02-28T11:58:17.677Z,17.63
2019-02-28T12:00:45.781Z,18.01
2019-02-28T12:03:13.586Z,17.69
2019-02-28T12:05:41.464Z,19.95
2019-02-28T12:08:10.542Z,19.31
2019-02-28T12:10:38.488Z,19.69
2019-02-28T12:13:06.275Z,19.37
2019-02-28T12:15:34.065Z,19.33
2019-02-28T12:18:04.521Z,18.89
2019-02-28T12:20:31.578Z,19.69
2019-02-28T12:22:59.353Z,20.34
2019-02-28T12:25:27.502Z,19.88
2019-02-28T12:27:55.421Z,21.22
2019-02-28T12:30:26.207Z,23.62
2019-02-28T12:32:55.948Z,23.52
2019-02-28T12:35:23.888Z,24.09
2019-02-28T12:37:54.038Z,25.24
2019-02-28T12:40:25.200Z,26.78
2019-02-28T12:42:52.965Z,28.40
2019-02-28T12:45:25.182Z,28.56
2019-02-28T12:47:53.087Z,29.23
2019-02-28T12:50:20.915Z,30.26
2019-02-28T12:52:49.903Z,31.16
2019-02-28T12:55:18.736Z,32.16
2019-02-28T12:57:46.688Z,32.19
2019-02-28T13:00:23.433Z,31.77
2019-02-28T13:02:52.426Z,31.89
2019-02-28T13:05:20.163Z,32.54
2019-02-28T13:07:48.586Z,32.77
2019-02-28T13:10:17.981Z,33.96
2019-02-28T13:12:48.941Z,35.88
2019-02-28T13:15:16.105Z,35.30
2019-02-28T13:17:43.945Z,35.53
2019-02-28T13:20:14.678Z,36.29
2019-02-28T13:22:42.429Z,36.15
2019-02-28T13:25:11.808Z,36.13
2019-02-28T13:27:41.611Z,36.52
2019-02-28T13:30:15.969Z,37.22
2019-02-28T13:32:45.016Z,37.75
2019-02-28T13:35:19.665Z,37.72
2019-02-28T13:37:47.697Z,37.89
2019-02-28T13:40:15.525Z,37.89
2019-02-28T13:42:44.000Z,38.18
2019-02-28T13:45:14.748Z,38.55
2019-02-28T13:47:46.287Z,39.21
2019-02-28T13:50:17.364Z,39.48
2019-02-28T13:52:45.368Z,39.59
2019-02-28T13:55:14.339Z,39.75
2019-02-28T13:57:43.687Z,39.65
2019-02-28T14:00:22.697Z,39.95
2019-02-28T14:02:53.000Z,39.93
2019-02-28T14:05:21.021Z,40.32
2019-02-28T14:07:49.471Z,40.64
2019-02-28T14:10:17.960Z,40.35
2019-02-28T14:12:45.965Z,40.44
2019-02-28T14:15:18.076Z,40.62
2019-02-28T14:17:45.920Z,40.67
2019-02-28T14:20:13.966Z,40.84
2019-02-28T14:22:42.718Z,40.97
2019-02-28T14:25:11.486Z,41.48
2019-02-28T14:27:39.270Z,41.88
2019-02-28T14:30:10.978Z,41.97
2019-02-28T14:32:42.134Z,42.29
2019-02-28T14:35:08.682Z,42.73
2019-02-28T14:37:36.452Z,43.19
2019-02-28T14:40:08.042Z,43.42
2019-02-28T14:42:35.858Z,43.60
2019-02-28T14:45:07.125Z,43.66
2019-02-28T14:47:34.077Z,43.91
2019-02-28T14:50:01.948Z,44.53
2019-02-28T14:52:30.045Z,44.67
2019-02-28T14:54:58.323Z,44.92
2019-02-28T14:57:26.303Z,44.62
2019-02-28T14:59:54.049Z,45.02
2019-02-28T15:02:21.831Z,44.92
2019-02-28T15:04:49.587Z,45.19
2019-02-28T15:07:17.669Z,44.81
2019-02-28T15:09:45.434Z,45.23
2019-02-28T15:12:13.197Z,45.70
2019-02-28T15:14:43.247Z,45.68
2019-02-28T15:17:10.616Z,45.85
2019-02-28T15:19:38.392Z,45.85
2019-02-28T15:22:06.172Z,45.89
2019-02-28T15:24:35.606Z,46.90
2019-02-28T15:27:04.483Z,46.30
2019-02-28T15:29:33.102Z,46.53
2019-02-28T15:32:00.888Z,46.73
2019-02-28T15:34:28.646Z,46.83
2019-02-28T15:36:59.326Z,47.29
2019-02-28T15:39:26.084Z,47.21
2019-02-28T15:41:54.498Z,47.52
2019-02-28T15:44:25.586Z,47.80
2019-02-28T15:46:52.722Z,48.06
2019-02-28T15:49:20.744Z,48.44
2019-02-28T15:51:48.938Z,48.44
2019-02-28T15:54:16.991Z,48.52
2019-02-28T15:56:45.113Z,48.82
2019-02-28T15:59:14.815Z,49.40
2019-02-28T16:01:43.646Z,49.93
2019-02-28T16:04:11.761Z,50.27
2019-02-28T16:06:39.966Z,50.57
2019-02-28T16:09:12.487Z,51.12
2019-02-28T16:11:41.020Z,51.48
2019-02-28T16:14:14.563Z,51.59
2019-02-28T16:16:39.980Z,51.80
2019-02-28T16:19:08.696Z,51.88
2019-02-28T16:21:38.163Z,52.04
2019-02-28T16:24:07.596Z,52.08
2019-02-28T16:26:35.684Z,52.17
2019-02-28T16:29:08.590Z,52.05
2019-02-28T16:31:43.795Z,51.57
2019-02-28T16:34:13.918Z,51.57
2019-02-28T16:36:43.666Z,50.79
2019-02-28T16:39:13.034Z,51.15
2019-02-28T16:41:49.248Z,51.04
2019-02-28T16:44:27.652Z,51.19
2019-02-28T16:47:06.206Z,51.08
2019-02-28T16:50:03.243Z,50.99
2019-02-28T16:52:37.355Z,51.47
2019-02-28T16:55:08.436Z,51.62
2019-02-28T16:57:37.607Z,51.49
2019-02-28T17:00:07.738Z,51.56
2019-02-28T17:03:54.729Z,51.35
2019-02-28T17:06:24.115Z,51.54
2019-02-28T17:09:18.204Z,51.85
2019-02-28T17:12:17.112Z,51.85
2019-02-28T17:14:48.338Z,52.26
2019-02-28T17:17:28.997Z,52.18
2019-02-28T17:20:03.003Z,52.34
2019-02-28T17:22:31.902Z,52.52
2019-02-28T17:25:03.322Z,52.64
2019-02-28T17:27:54.495Z,52.69
2019-02-28T17:30:48.649Z,52.88
2019-02-28T17:33:17.695Z,53.27
2019-02-28T17:35:45.942Z,53.15
2019-02-28T17:38:14.030Z,53.27
2019-02-28T17:40:42.128Z,53.47
2019-02-28T17:43:10.192Z,53.77
2019-02-28T17:45:39.322Z,54.06
2019-02-28T17:49:33.253Z,54.48
2019-02-28T17:52:17.880Z,54.44
2019-02-28T17:55:16.823Z,55.04
2019-02-28T17:58:24.848Z,55.07
2019-02-28T18:01:48.467Z,55.42
2019-02-28T18:05:00.453Z,55.57
2019-02-28T18:08:02.754Z,55.75
2019-02-28T18:11:37.198Z,55.96
2019-02-28T18:15:05.618Z,56.14
2019-02-28T18:18:52.032Z,56.31
2019-02-28T18:22:52.040Z,56.47
2019-02-28T18:26:38.716Z,56.26
2019-02-28T18:29:16.076Z,55.51
2019-02-28T18:31:43.861Z,55.61
2019-02-28T18:34:24.838Z,54.82
2019-02-28T18:36:52.650Z,54.92
2019-02-28T18:39:20.412Z,54.75
2019-02-28T18:41:48.219Z,55.09
2019-02-28T18:44:15.995Z,55.13
2019-02-28T18:46:43.849Z,55.40
2019-02-28T18:49:11.714Z,55.82
2019-02-28T18:51:39.523Z,55.72
2019-02-28T18:54:08.378Z,56.00
2019-02-28T18:56:36.149Z,56.28
2019-02-28T18:59:04.077Z,56.59
2019-02-28T19:01:31.873Z,56.70
2019-02-28T19:03:59.693Z,57.16
2019-02-28T19:06:27.511Z,57.38
2019-02-28T19:08:55.313Z,57.41
2019-02-28T19:11:23.108Z,57.41
2019-02-28T19:13:50.884Z,57.50
2019-02-28T19:16:19.529Z,57.26
2019-02-28T19:18:47.388Z,56.93
2019-02-28T19:21:15.215Z,56.49
2019-02-28T19:23:43.040Z,56.47
2019-02-28T19:26:10.832Z,56.86
2019-02-28T19:28:38.580Z,56.87
2019-02-28T19:31:06.356Z,57.25
2019-02-28T19:33:34.099Z,57.55
2019-02-28T19:36:01.912Z,57.85
2019-02-28T19:38:30.136Z,58.20
2019-02-28T19:40:59.298Z,58.54
2019-02-28T19:43:27.058Z,58.54
2019-02-28T19:45:55.463Z,58.34
2019-02-28T19:48:24.206Z,58.53
2019-02-28T19:50:51.948Z,59.14
2019-02-28T19:53:19.762Z,58.89
2019-02-28T19:55:47.539Z,58.71
2019-02-28T19:58:15.398Z,58.83
2019-02-28T20:00:43.252Z,59.35
2019-02-28T20:03:11.117Z,59.59
2019-02-28T20:05:40.331Z,59.41
2019-02-28T20:08:08.130Z,59.36
2019-02-28T20:10:37.197Z,59.36
2019-02-28T20:13:15.530Z,59.58
2019-02-28T20:15:43.297Z,59.47
2019-02-28T20:18:11.314Z,59.78
2019-02-28T20:20:39.250Z,59.83
2019-02-28T20:23:08.406Z,60.18
2019-02-28T20:25:38.504Z,60.52
2019-02-28T20:28:06.315Z,60.77
2019-02-28T20:30:37.081Z,60.83
2019-02-28T20:33:04.972Z,60.81
2019-02-28T20:35:35.554Z,61.04
2019-02-28T20:38:03.585Z,61.02
2019-02-28T20:40:33.809Z,61.12
2019-02-28T20:43:01.612Z,60.93
2019-02-28T20:45:29.377Z,60.85
2019-02-28T20:47:57.632Z,60.97
2019-02-28T20:50:40.271Z,60.82
2019-02-28T20:53:08.241Z,61.08
2019-02-28T20:55:36.015Z,61.59
2019-02-28T20:58:06.859Z,61.88
2019-02-28T21:00:34.603Z,62.68
2019-02-28T21:03:02.680Z,63.32
2019-02-28T21:05:30.486Z,63.38
2019-02-28T21:07:58.330Z,63.15
2019-02-28T21:10:28.623Z,63.38
2019-02-28T21:12:56.412Z,63.19
2019-02-28T21:15:24.900Z,63.19
2019-02-28T21:17:52.732Z,62.91
2019-02-28T21:20:20.539Z,62.71
2019-02-28T21:22:48.299Z,62.40
2019-02-28T21:25:16.122Z,61.89
2019-02-28T21:27:43.910Z,61.86
2019-02-28T21:30:17.279Z,61.91
2019-02-28T21:32:45.028Z,61.73
2019-02-28T21:35:14.834Z,61.75
2019-02-28T21:37:42.546Z,61.75
2019-02-28T21:40:11.638Z,61.85
2019-02-28T21:42:39.426Z,61.78
2019-02-28T21:45:08.868Z,61.63
2019-02-28T21:47:36.619Z,61.31
2019-02-28T21:50:08.385Z,61.25
2019-02-28T21:52:36.150Z,61.01
2019-02-28T21:55:04.893Z,61.00
2019-02-28T21:57:32.687Z,60.90
2019-02-28T22:00:00.481Z,60.68
2019-02-28T22:02:28.231Z,60.50
2019-02-28T22:04:55.986Z,60.63
2019-02-28T22:07:23.759Z,60.00
2019-02-28T22:09:51.519Z,60.07
2019-02-28T22:12:19.303Z,60.30
2019-02-28T22:14:47.043Z,59.68
2019-02-28T22:17:14.792Z,60.04
2019-02-28T22:19:42.580Z,59.72
2019-02-28T22:22:10.346Z,59.88
2019-02-28T22:24:38.093Z,59.68
2019-02-28T22:27:05.990Z,59.68
2019-02-28T22:29:33.792Z,59.67
2019-02-28T22:32:24.196Z,59.98
2019-02-28T22:34:51.923Z,59.96
2019-02-28T22:37:19.730Z,59.82
2019-02-28T22:39:47.559Z,59.93
2019-02-28T22:42:22.107Z,60.15
2019-02-28T22:44:45.237Z,60.02
2019-02-28T22:47:12.974Z,60.08
2019-02-28T22:49:40.755Z,60.57
2019-02-28T22:52:08.538Z,60.49
2019-02-28T22:54:36.298Z,60.07
2019-02-28T22:57:04.074Z,60.41
2019-02-28T22:59:31.833Z,60.52
2019-02-28T23:01:59.581Z,60.71
2019-02-28T23:04:27.307Z,60.74
2019-02-28T23:06:55.064Z,60.58
2019-02-28T23:09:22.776Z,60.66
2019-02-28T23:11:50.520Z,60.62
2019-02-28T23:14:18.447Z,60.46
2019-02-28T23:16:46.205Z,60.48
2019-02-28T23:19:13.967Z,60.33
2019-02-28T23:21:41.723Z,60.32
2019-02-28T23:24:09.492Z,60.85
2019-02-28T23:27:12.060Z,61.26
2019-02-28T23:30:20.333Z,61.31
2019-02-28T23:33:07.795Z,62.04
2019-02-28T23:35:41.398Z,63.48
2019-02-28T23:38:09.194Z,64.30
2019-02-28T23:40:37.066Z,65.07
2019-02-28T23:43:05.028Z,65.55
2019-02-28T23:45:32.936Z,66.24
2019-02-28T23:48:00.715Z,66.86
2019-02-28T23:50:28.653Z,67.83
2019-02-28T23:52:56.414Z,69.62
2019-02-28T23:55:24.377Z,70.29
2019-02-28T23:57:52.372Z,70.71
